VOHY/HYD METAR and TAF weather

Enter ICAO airport designator
Station Type Date Time Source
VOHY METAR 2018/12/15 04:00 UTC NOAA

VOHY 150400Z 07005KT 3000 BR SCT015 BKN100 23/20 Q1021 BECMG 5000 HZ


Station Type Date Time Source
VOHY Decoded METAR 2018/12/15 04:00 UTC NOAA

Hyderabad Airport, India (VOHY) 17-27N 078-28E 545M
Dec 14, 2018 - 11:00 PM EST / 2018.12.15 0400 UTC
Wind: from the ENE (070 degrees) at 6 MPH (5 KT):0
Visibility: 1 mile(s):0
Sky conditions: mostly cloudy
Weather: mist
Temperature: 73 F (23 C)
Dew Point: 68 F (20 C)
Relative Humidity: 83%
Pressure (altimeter): 30.15 in. Hg (1021 hPa)
ob: VOHY 150400Z 07005KT 3000 BR SCT015 BKN100 23/20 Q1021 BECMG 5000 HZ
cycle: 4

Station Type Date Time Source
VOHY TAF 2018/11/20 12:00 UTC NOAA

TAF VOHY 201100Z 2012/2021 07006KT 6000 HZ SCT020 SCT100
TEMPO 2012/2019 10006KT 5000 BR .DZ FEW025 BKN100


Example: see airport list